Time,TemperatureF,DewpointF,PressureIn,WindDirection,WindDirectionDegrees,WindSpeedMPH,WindSpeedGustMPH,Humidity,HourlyPrecipIn,Conditions,Clouds,dailyrainin,SoftwareType,DateUTC
2013-11-27 00:01:00,21.8,18.0,30.28,SW,235,4.0,6.0,86,0.00,,,0.00,weatherlink.com 1.10,2013-11-27 07:01:00,
2013-11-27 00:16:00,21.0,18.0,30.27,WSW,241,4.0,4.0,87,0.00,,,0.00,weatherlink.com 1.10,2013-11-27 07:16:00,
2013-11-27 00:31:00,21.5,19.0,30.26,WSW,246,6.0,6.0,88,0.00,,,0.00,weatherlink.com 1.10,2013-11-27 07:31:00,
2013-11-27 00:46:00,21.1,18.0,30.26,WSW,239,4.0,5.0,88,0.00,,,0.00,weatherlink.com 1.10,2013-11-27 07:46:00,
2013-11-27 01:01:00,22.6,20.0,30.25,WSW,246,3.0,6.0,89,0.00,,,0.00,weatherlink.com 1.10,2013-11-27 08:01:00,
2013-11-27 01:16:00,23.4,20.0,30.25,WSW,238,6.0,8.0,88,0.00,,,0.00,weatherlink.com 1.10,2013-11-27 08:16:00,
2013-11-27 01:31:00,25.0,21.0,30.24,WSW,257,11.0,11.0,85,0.00,,,0.00,weatherlink.com 1.10,2013-11-27 08:31:00,
2013-11-27 02:01:00,24.6,20.0,30.23,West,264,10.0,10.0,84,0.00,,,0.00,weatherlink.com 1.10,2013-11-27 09:01:00,
2013-11-27 02:16:00,23.6,20.0,30.22,West,262,6.0,8.0,86,0.00,,,0.00,weatherlink.com 1.10,2013-11-27 09:16:00,
2013-11-27 02:32:00,24.3,21.0,30.21,WSW,256,8.0,10.0,86,0.00,,,0.00,weatherlink.com 1.10,2013-11-27 09:32:00,
2013-11-27 03:02:00,23.5,20.0,30.19,WSW,252,7.0,10.0,86,0.00,,,0.00,weatherlink.com 1.10,2013-11-27 10:02:00,
2013-11-27 03:17:00,24.1,21.0,30.19,West,264,8.0,8.0,87,0.00,,,0.00,weatherlink.com 1.10,2013-11-27 10:17:00,
2013-11-27 03:32:00,24.9,21.0,30.18,West,262,8.0,11.0,85,0.00,,,0.00,weatherlink.com 1.10,2013-11-27 10:32:00,
2013-11-27 03:47:00,24.5,21.0,30.18,West,259,8.0,10.0,85,0.00,,,0.00,weatherlink.com 1.10,2013-11-27 10:47:00,
2013-11-27 04:02:00,24.1,21.0,30.18,West,263,6.0,8.0,86,0.00,,,0.00,weatherlink.com 1.10,2013-11-27 11:02:00,
2013-11-27 04:17:00,24.4,21.0,30.17,West,264,6.0,9.0,86,0.00,,,0.00,weatherlink.com 1.10,2013-11-27 11:17:00,
2013-11-27 04:32:00,25.3,21.0,30.17,West,262,8.0,10.0,85,0.00,,,0.00,weatherlink.com 1.10,2013-11-27 11:32:00,
2013-11-27 04:47:00,25.7,22.0,30.16,West,263,9.0,11.0,84,0.00,,,0.00,weatherlink.com 1.10,2013-11-27 11:47:00,
2013-11-27 05:02:00,25.3,21.0,30.15,West,259,7.0,10.0,84,0.00,,,0.00,weatherlink.com 1.10,2013-11-27 12:02:00,
2013-11-27 05:17:00,25.3,21.0,30.15,West,276,7.0,10.0,84,0.00,,,0.00,weatherlink.com 1.10,2013-11-27 12:17:00,
2013-11-27 05:32:00,26.0,21.0,30.14,West,267,7.0,9.0,82,0.00,,,0.00,weatherlink.com 1.10,2013-11-27 12:32:00,
2013-11-27 05:47:00,26.2,21.0,30.14,West,269,9.0,10.0,82,0.00,,,0.00,weatherlink.com 1.10,2013-11-27 12:47:00,
2013-11-27 06:02:00,26.1,21.0,30.14,West,273,6.0,9.0,81,0.00,,,0.00,weatherlink.com 1.10,2013-11-27 13:02:00,
2013-11-27 06:17:00,26.1,21.0,30.13,West,270,6.0,10.0,82,0.00,,,0.00,weatherlink.com 1.10,2013-11-27 13:17:00,
2013-11-27 06:32:00,26.1,21.0,30.12,West,264,8.0,10.0,82,0.00,,,0.00,weatherlink.com 1.10,2013-11-27 13:32:00,
2013-11-27 06:47:00,26.3,21.0,30.12,West,264,11.0,12.0,81,0.00,,,0.00,weatherlink.com 1.10,2013-11-27 13:47:00,
2013-11-27 07:02:00,26.0,21.0,30.12,WSW,256,9.0,11.0,81,0.00,,,0.00,weatherlink.com 1.10,2013-11-27 14:02:00,
2013-11-27 07:17:00,26.0,21.0,30.11,WSW,249,10.0,12.0,82,0.00,,,0.00,weatherlink.com 1.10,2013-11-27 14:17:00,
2013-11-27 07:32:00,27.1,22.0,30.11,WSW,245,10.0,13.0,80,0.00,,,0.00,weatherlink.com 1.10,2013-11-27 14:32:00,
2013-11-27 07:47:00,28.7,23.0,30.11,West,266,9.0,12.0,79,0.00,,,0.00,weatherlink.com 1.10,2013-11-27 14:47:00,
2013-11-27 08:02:00,30.6,24.0,30.11,West,266,12.0,13.0,77,0.00,,,0.00,weatherlink.com 1.10,2013-11-27 15:02:00,
2013-11-27 08:17:00,33.1,25.0,30.11,West,262,7.0,14.0,73,0.00,,,0.00,weatherlink.com 1.10,2013-11-27 15:17:00,
2013-11-27 08:32:00,35.5,26.0,30.10,West,270,10.0,12.0,69,0.00,,,0.00,weatherlink.com 1.10,2013-11-27 15:32:00,
2013-11-27 08:47:00,37.7,26.0,30.10,West,274,9.0,13.0,64,0.00,,,0.00,weatherlink.com 1.10,2013-11-27 15:47:00,
2013-11-27 09:03:00,38.5,27.0,30.09,WNW,294,10.0,14.0,64,0.00,,,0.00,weatherlink.com 1.10,2013-11-27 16:03:00,
2013-11-27 09:18:00,39.9,28.0,30.09,WSW,256,13.0,16.0,62,0.00,,,0.00,weatherlink.com 1.10,2013-11-27 16:18:00,
2013-11-27 09:33:00,41.0,28.0,30.09,West,267,13.0,20.0,60,0.00,,,0.00,weatherlink.com 1.10,2013-11-27 16:33:00,
2013-11-27 09:48:00,42.2,28.0,30.08,West,262,15.0,18.0,58,0.00,,,0.00,weatherlink.com 1.10,2013-11-27 16:48:00,
2013-11-27 10:03:00,43.9,28.0,30.07,WSW,255,18.0,21.0,53,0.00,,,0.00,weatherlink.com 1.10,2013-11-27 17:03:00,
2013-11-27 10:18:00,44.6,28.0,30.07,WSW,255,15.0,22.0,53,0.00,,,0.00,weatherlink.com 1.10,2013-11-27 17:18:00,
2013-11-27 10:33:00,46.2,30.0,30.06,WSW,243,13.0,19.0,53,0.00,,,0.00,weatherlink.com 1.10,2013-11-27 17:33:00,
2013-11-27 10:48:00,47.5,29.0,30.04,WSW,250,16.0,20.0,49,0.00,,,0.00,weatherlink.com 1.10,2013-11-27 17:48:00,
2013-11-27 11:03:00,48.7,30.0,30.04,SSW,193,13.0,19.0,48,0.00,,,0.00,weatherlink.com 1.10,2013-11-27 18:03:00,
2013-11-27 11:18:00,49.8,28.0,30.03,West,266,12.0,17.0,44,0.00,,,0.00,weatherlink.com 1.10,2013-11-27 18:18:00,
2013-11-27 11:33:00,50.9,31.0,30.02,West,262,9.0,18.0,46,0.00,,,0.00,weatherlink.com 1.10,2013-11-27 18:33:00,
2013-11-27 11:48:00,52.5,29.0,30.01,NW,307,8.0,18.0,40,0.00,,,0.00,weatherlink.com 1.10,2013-11-27 18:48:00,
2013-11-27 12:03:00,53.0,28.0,30.01,NNW,337,8.0,17.0,38,0.00,,,0.00,weatherlink.com 1.10,2013-11-27 19:03:00,
2013-11-27 12:18:00,53.7,28.0,30.01,NW,314,13.0,14.0,37,0.00,,,0.00,weatherlink.com 1.10,2013-11-27 19:18:00,
2013-11-27 12:33:00,54.3,29.0,30.00,NW,312,9.0,15.0,38,0.00,,,0.00,weatherlink.com 1.10,2013-11-27 19:33:00,
2013-11-27 12:48:00,54.3,30.0,30.00,WNW,284,7.0,14.0,40,0.00,,,0.00,weatherlink.com 1.10,2013-11-27 19:48:00,
2013-11-27 13:03:00,54.9,31.0,29.99,NW,315,9.0,15.0,40,0.00,,,0.00,weatherlink.com 1.10,2013-11-27 20:03:00,
2013-11-27 13:19:00,55.9,30.0,29.98,West,266,6.0,14.0,38,0.00,,,0.00,weatherlink.com 1.10,2013-11-27 20:19:00,
2013-11-27 13:34:00,56.7,27.0,29.98,NW,319,11.0,15.0,32,0.00,,,0.00,weatherlink.com 1.10,2013-11-27 20:34:00,
2013-11-27 13:49:00,56.9,26.0,29.97,NNW,335,10.0,15.0,31,0.00,,,0.00,weatherlink.com 1.10,2013-11-27 20:49:00,
2013-11-27 14:04:00,56.2,27.0,29.98,NNW,336,12.0,13.0,33,0.00,,,0.00,weatherlink.com 1.10,2013-11-27 21:04:00,
2013-11-27 14:19:00,56.9,28.0,29.97,NW,319,8.0,11.0,33,0.00,,,0.00,weatherlink.com 1.10,2013-11-27 21:19:00,
2013-11-27 14:34:00,57.1,28.0,29.97,NNW,340,8.0,11.0,33,0.00,,,0.00,weatherlink.com 1.10,2013-11-27 21:34:00,
2013-11-27 14:49:00,57.0,29.0,29.98,NNW,334,5.0,10.0,34,0.00,,,0.00,weatherlink.com 1.10,2013-11-27 21:49:00,
2013-11-27 15:04:00,56.3,29.0,29.98,North,350,6.0,9.0,36,0.00,,,0.00,weatherlink.com 1.10,2013-11-27 22:04:00,
2013-11-27 15:19:00,55.5,30.0,29.98,NNE,32,5.0,8.0,38,0.00,,,0.00,weatherlink.com 1.10,2013-11-27 22:19:00,
2013-11-27 15:34:00,54.3,31.0,29.98,ENE,63,3.0,6.0,41,0.00,,,0.00,weatherlink.com 1.10,2013-11-27 22:34:00,
2013-11-27 15:49:00,52.6,31.0,29.99,ENE,70,4.0,5.0,44,0.00,,,0.00,weatherlink.com 1.10,2013-11-27 22:49:00,
2013-11-27 16:04:00,50.9,30.0,29.99,NNE,33,4.0,4.0,45,0.00,,,0.00,weatherlink.com 1.10,2013-11-27 23:04:00,
2013-11-27 16:19:00,50.7,30.0,29.99,NE,42,5.0,6.0,45,0.00,,,0.00,weatherlink.com 1.10,2013-11-27 23:19:00,
2013-11-27 16:34:00,49.6,29.0,29.99,NNE,29,5.0,6.0,46,0.00,,,0.00,weatherlink.com 1.10,2013-11-27 23:34:00,
2013-11-27 16:49:00,48.3,29.0,29.99,NE,36,4.0,5.0,48,0.00,,,0.00,weatherlink.com 1.10,2013-11-27 23:49:00,
2013-11-27 17:04:00,47.8,29.0,29.99,NE,37,1.0,3.0,49,0.00,,,0.00,weatherlink.com 1.10,2013-11-28 00:04:00,
2013-11-27 17:19:00,43.8,27.0,30.00,NE,37,1.0,1.0,53,0.00,,,0.00,weatherlink.com 1.10,2013-11-28 00:19:00,
2013-11-27 17:34:00,42.5,28.0,30.00,NNW,330,2.0,2.0,57,0.00,,,0.00,weatherlink.com 1.10,2013-11-28 00:34:00,
2013-11-27 17:49:00,42.4,28.0,30.00,NNW,330,4.0,5.0,56,0.00,,,0.00,weatherlink.com 1.10,2013-11-28 00:49:00,
2013-11-27 18:04:00,38.2,27.0,30.00,NW,326,5.0,6.0,64,0.00,,,0.00,weatherlink.com 1.10,2013-11-28 01:04:00,
2013-11-27 18:19:00,33.7,26.0,30.01,NNW,332,4.0,6.0,74,0.00,,,0.00,weatherlink.com 1.10,2013-11-28 01:19:00,
2013-11-27 18:34:00,32.3,26.0,30.01,NW,323,5.0,6.0,77,0.00,,,0.00,weatherlink.com 1.10,2013-11-28 01:34:00,
2013-11-27 18:49:00,31.4,26.0,30.02,NW,322,4.0,5.0,80,0.00,,,0.00,weatherlink.com 1.10,2013-11-28 01:49:00,
2013-11-27 19:04:00,32.2,26.0,30.02,NW,309,4.0,6.0,79,0.00,,,0.00,weatherlink.com 1.10,2013-11-28 02:04:00,
2013-11-27 19:19:00,32.2,26.0,30.03,NW,307,2.0,3.0,78,0.00,,,0.00,weatherlink.com 1.10,2013-11-28 02:19:00,
2013-11-27 19:34:00,32.6,26.0,30.03,WNW,301,2.0,2.0,76,0.00,,,0.00,weatherlink.com 1.10,2013-11-28 02:34:00,
2013-11-27 19:49:00,32.7,26.0,30.03,NNW,338,3.0,4.0,76,0.00,,,0.00,weatherlink.com 1.10,2013-11-28 02:49:00,
2013-11-27 20:04:00,32.7,26.0,30.04,NW,307,3.0,4.0,75,0.00,,,0.00,weatherlink.com 1.10,2013-11-28 03:04:00,
2013-11-27 20:19:00,32.1,25.0,30.04,NNW,329,4.0,5.0,76,0.00,,,0.00,weatherlink.com 1.10,2013-11-28 03:19:00,
2013-11-27 20:34:00,33.6,25.0,30.05,NNE,26,4.0,7.0,72,0.00,,,0.00,weatherlink.com 1.10,2013-11-28 03:34:00,
2013-11-27 20:49:00,34.7,27.0,30.05,North,352,6.0,7.0,72,0.00,,,0.00,weatherlink.com 1.10,2013-11-28 03:49:00,
2013-11-27 21:04:00,34.8,26.0,30.06,NNE,15,7.0,9.0,71,0.00,,,0.00,weatherlink.com 1.10,2013-11-28 04:04:00,
2013-11-27 21:19:00,34.0,26.0,30.06,NNE,25,7.0,8.0,72,0.00,,,0.00,weatherlink.com 1.10,2013-11-28 04:19:00,
2013-11-27 22:04:00,33.1,25.0,30.07,NE,37,3.0,4.0,73,0.00,,,0.00,weatherlink.com 1.10,2013-11-28 05:04:00,
2013-11-27 22:34:00,32.4,25.0,30.08,NE,41,4.0,4.0,74,0.00,,,0.00,weatherlink.com 1.10,2013-11-28 05:34:00,
2013-11-27 22:49:00,31.9,25.0,30.08,NNE,33,6.0,7.0,74,0.00,,,0.00,weatherlink.com 1.10,2013-11-28 05:49:00,
2013-11-27 23:04:00,29.9,24.0,30.08,North,360,7.0,7.0,78,0.00,,,0.00,weatherlink.com 1.10,2013-11-28 06:04:00,
2013-11-27 23:19:00,30.2,24.0,30.09,NNW,347,4.0,7.0,77,0.00,,,0.00,weatherlink.com 1.10,2013-11-28 06:19:00,
2013-11-27 23:34:00,29.7,24.0,30.10,North,354,1.0,4.0,78,0.00,,,0.00,weatherlink.com 1.10,2013-11-28 06:34:00,
2013-11-27 23:49:00,29.2,23.0,30.10,NNW,339,3.0,3.0,78,0.00,,,0.00,weatherlink.com 1.10,2013-11-28 06:49:00,